createdAt,value
2022-12-26T00:00:55.882Z,997.32
2022-12-26T00:01:55.877Z,997.28
2022-12-26T00:02:55.845Z,997.26
2022-12-26T00:03:55.836Z,997.32
2022-12-26T00:04:55.812Z,997.27
2022-12-26T00:05:55.818Z,997.3
2022-12-26T00:06:55.830Z,997.31
2022-12-26T00:07:55.782Z,997.31
2022-12-26T00:08:55.802Z,997.29
2022-12-26T00:09:55.777Z,997.26
2022-12-26T00:10:56.104Z,997.28
2022-12-26T00:11:55.757Z,997.25
2022-12-26T00:12:55.740Z,997.28
2022-12-26T00:13:55.720Z,997.23
2022-12-26T00:14:55.744Z,997.26
2022-12-26T00:15:55.706Z,997.19
2022-12-26T00:16:55.688Z,997.25
2022-12-26T00:17:55.680Z,997.22
2022-12-26T00:18:55.684Z,997.26
2022-12-26T00:19:55.660Z,997.25
2022-12-26T00:20:55.653Z,997.31
2022-12-26T00:21:55.666Z,997.22
2022-12-26T00:22:55.670Z,997.22
2022-12-26T00:23:55.646Z,997.27
2022-12-26T00:24:55.624Z,997.21
2022-12-26T00:25:55.618Z,997.17
2022-12-26T00:26:55.601Z,997.2
2022-12-26T00:27:55.571Z,997.25
2022-12-26T00:28:55.574Z,997.18
2022-12-26T00:29:55.555Z,997.15
2022-12-26T00:30:55.547Z,997.19
2022-12-26T00:31:55.655Z,997.22
2022-12-26T00:32:55.528Z,997.22
2022-12-26T00:33:55.509Z,997.27
2022-12-26T00:34:55.712Z,997.32
2022-12-26T00:35:55.496Z,997.3
2022-12-26T00:36:55.552Z,997.3
2022-12-26T00:37:56.486Z,997.41
2022-12-26T00:38:55.503Z,997.44
2022-12-26T00:39:55.446Z,997.4
2022-12-26T00:40:55.485Z,997.42
2022-12-26T00:41:55.442Z,997.34
2022-12-26T00:42:55.422Z,997.41
2022-12-26T00:43:55.417Z,997.41
2022-12-26T00:44:55.439Z,997.48
2022-12-26T00:45:55.386Z,997.44
2022-12-26T00:46:55.376Z,997.52
2022-12-26T00:47:55.379Z,997.52
2022-12-26T00:48:55.349Z,997.51
2022-12-26T00:49:55.388Z,997.55
2022-12-26T00:50:55.338Z,997.56
2022-12-26T00:51:55.326Z,997.56
2022-12-26T00:52:55.320Z,997.55
2022-12-26T00:53:55.315Z,997.64
2022-12-26T00:54:55.295Z,997.67
2022-12-26T00:55:55.285Z,997.66
2022-12-26T00:56:55.272Z,997.63
2022-12-26T00:57:55.285Z,997.65
2022-12-26T00:58:55.269Z,997.62
2022-12-26T00:59:55.299Z,997.61
2022-12-26T01:00:55.226Z,997.57
2022-12-26T01:01:55.225Z,997.63
2022-12-26T01:02:55.209Z,997.54
2022-12-26T01:03:55.241Z,997.48
2022-12-26T01:04:55.206Z,997.53
2022-12-26T01:05:55.205Z,997.56
2022-12-26T01:06:55.167Z,997.55
2022-12-26T01:07:55.148Z,997.52
2022-12-26T01:08:55.161Z,997.49
2022-12-26T01:09:55.152Z,997.54
2022-12-26T01:10:55.141Z,997.55
2022-12-26T01:11:55.162Z,997.58
2022-12-26T01:12:55.150Z,997.56
2022-12-26T01:13:55.090Z,997.56
2022-12-26T01:14:55.184Z,997.51
2022-12-26T01:15:55.109Z,997.54
2022-12-26T01:16:55.132Z,997.48
2022-12-26T01:17:55.053Z,997.48
2022-12-26T01:18:55.042Z,997.55
2022-12-26T01:19:56.030Z,997.55
2022-12-26T01:20:55.027Z,997.55
2022-12-26T01:21:55.014Z,997.54
2022-12-26T01:22:55.008Z,997.59
2022-12-26T01:23:55.048Z,997.54
2022-12-26T01:24:55.002Z,997.55
2022-12-26T01:25:55.183Z,997.54
2022-12-26T01:26:54.973Z,997.61
2022-12-26T01:27:54.955Z,997.62
2022-12-26T01:28:54.945Z,997.55
2022-12-26T01:29:54.954Z,997.6
2022-12-26T01:30:54.920Z,997.57
2022-12-26T01:31:54.944Z,997.61
2022-12-26T01:32:54.907Z,997.66
2022-12-26T01:33:54.916Z,997.73
2022-12-26T01:34:54.915Z,997.77
2022-12-26T01:35:54.884Z,997.82
2022-12-26T01:36:54.932Z,997.81
2022-12-26T01:37:54.878Z,997.76
2022-12-26T01:38:54.871Z,997.78
2022-12-26T01:39:54.820Z,997.72
2022-12-26T01:40:54.820Z,997.75
2022-12-26T01:41:54.797Z,997.77
2022-12-26T01:42:54.786Z,997.78
2022-12-26T01:43:54.803Z,997.7
2022-12-26T01:44:54.775Z,997.68
2022-12-26T01:45:54.759Z,997.69
2022-12-26T01:46:54.749Z,997.7
2022-12-26T01:47:54.763Z,997.69
2022-12-26T01:48:54.722Z,997.67
2022-12-26T01:49:54.718Z,997.79
2022-12-26T01:50:54.699Z,997.84
2022-12-26T01:51:54.691Z,997.76
2022-12-26T01:52:54.715Z,997.78
2022-12-26T01:53:54.675Z,997.8
2022-12-26T01:54:54.654Z,997.85
2022-12-26T01:55:54.665Z,997.91
2022-12-26T01:56:54.636Z,997.88
2022-12-26T01:57:54.642Z,997.83
2022-12-26T01:58:54.615Z,997.85
2022-12-26T01:59:54.619Z,997.75
2022-12-26T02:00:54.594Z,997.78
2022-12-26T02:01:54.590Z,997.79
2022-12-26T02:02:54.578Z,997.79
2022-12-26T02:03:54.561Z,997.83
2022-12-26T02:04:54.564Z,997.85
2022-12-26T02:05:54.543Z,997.81
2022-12-26T02:06:54.534Z,997.83
2022-12-26T02:07:54.522Z,997.91
2022-12-26T02:08:54.508Z,997.92
2022-12-26T02:09:54.509Z,997.88
2022-12-26T02:10:54.487Z,997.86
2022-12-26T02:11:54.551Z,997.94
2022-12-26T02:12:54.480Z,997.93
2022-12-26T02:13:54.453Z,997.97
2022-12-26T02:14:54.470Z,998.02
2022-12-26T02:15:54.434Z,997.96
2022-12-26T02:16:54.423Z,997.98
2022-12-26T02:17:54.417Z,997.99
2022-12-26T02:18:54.414Z,997.95
2022-12-26T02:19:54.521Z,997.95
2022-12-26T02:20:54.383Z,997.92
2022-12-26T02:21:54.380Z,997.87
2022-12-26T02:22:54.368Z,997.97
2022-12-26T02:23:54.390Z,998.02
2022-12-26T02:24:54.338Z,998.01
2022-12-26T02:25:54.330Z,997.96
2022-12-26T02:26:54.325Z,997.96
2022-12-26T02:27:54.319Z,997.9
2022-12-26T02:28:54.301Z,997.89
2022-12-26T02:29:54.287Z,997.87
2022-12-26T02:30:54.292Z,997.79
2022-12-26T02:31:54.272Z,997.8
2022-12-26T02:32:54.262Z,997.75
2022-12-26T02:33:54.259Z,997.78
2022-12-26T02:34:54.237Z,997.79
2022-12-26T02:35:54.237Z,997.78
2022-12-26T02:36:54.222Z,997.86
2022-12-26T02:37:54.208Z,997.88
2022-12-26T02:38:54.200Z,997.88
2022-12-26T02:39:54.186Z,997.82
2022-12-26T02:40:54.174Z,997.92
2022-12-26T02:41:54.183Z,997.81
2022-12-26T02:42:54.156Z,997.81
2022-12-26T02:43:54.145Z,997.83
2022-12-26T02:44:54.141Z,997.86
2022-12-26T02:45:54.121Z,997.79
2022-12-26T02:46:54.115Z,997.85
2022-12-26T02:47:54.097Z,997.86
2022-12-26T02:48:54.093Z,997.9
2022-12-26T02:49:54.084Z,997.95
2022-12-26T02:50:54.086Z,997.93
2022-12-26T02:51:54.056Z,997.99
2022-12-26T02:52:54.045Z,997.88
2022-12-26T02:53:54.034Z,997.85
2022-12-26T02:54:54.029Z,997.89
2022-12-26T02:55:54.020Z,997.95
2022-12-26T02:56:54.017Z,997.98
2022-12-26T02:57:53.993Z,997.88
2022-12-26T02:58:53.982Z,997.86
2022-12-26T02:59:53.988Z,997.81
2022-12-26T03:00:53.970Z,997.85
2022-12-26T03:01:53.971Z,997.96
2022-12-26T03:02:53.948Z,997.95
2022-12-26T03:03:54.001Z,997.85
2022-12-26T03:04:53.931Z,997.86
2022-12-26T03:05:53.979Z,997.85
2022-12-26T03:06:53.902Z,997.89
2022-12-26T03:07:53.898Z,997.83
2022-12-26T03:08:53.889Z,997.82
2022-12-26T03:09:53.871Z,997.88
2022-12-26T03:10:53.861Z,997.89
2022-12-26T03:11:53.851Z,997.94
2022-12-26T03:12:53.881Z,997.97
2022-12-26T03:13:53.870Z,997.94
2022-12-26T03:14:53.821Z,997.88
2022-12-26T03:15:54.227Z,997.93
2022-12-26T03:16:53.801Z,997.83
2022-12-26T03:17:53.819Z,997.89
2022-12-26T03:18:53.775Z,997.89
2022-12-26T03:19:53.766Z,997.87
2022-12-26T03:20:53.781Z,997.88
2022-12-26T03:21:53.741Z,997.9
2022-12-26T03:22:53.754Z,997.89
2022-12-26T03:23:53.796Z,997.88
2022-12-26T03:24:53.752Z,997.83
2022-12-26T03:25:53.705Z,997.79
2022-12-26T03:26:53.695Z,997.8
2022-12-26T03:27:53.749Z,997.81
2022-12-26T03:28:53.710Z,997.77
2022-12-26T03:29:53.707Z,997.8
2022-12-26T03:30:53.714Z,997.8
2022-12-26T03:31:53.650Z,997.84
2022-12-26T03:32:53.693Z,997.81
2022-12-26T03:33:53.627Z,997.84
2022-12-26T03:34:53.607Z,997.86
2022-12-26T03:35:53.599Z,997.91
2022-12-26T03:36:53.591Z,997.89
2022-12-26T03:37:53.599Z,997.96
2022-12-26T03:38:53.581Z,997.9
2022-12-26T03:39:53.571Z,997.86
2022-12-26T03:40:53.598Z,997.96
2022-12-26T03:41:53.534Z,998.01
2022-12-26T03:42:53.555Z,998.04
2022-12-26T03:43:53.527Z,998.08
2022-12-26T03:44:53.505Z,998.14
2022-12-26T03:45:53.496Z,998.14
2022-12-26T03:46:53.485Z,998.18
2022-12-26T03:47:53.469Z,998.12
2022-12-26T03:48:53.467Z,998.11
2022-12-26T03:49:53.445Z,998.11
2022-12-26T03:50:53.444Z,998.15
2022-12-26T03:51:53.438Z,998.19
2022-12-26T03:52:53.419Z,998.18
2022-12-26T03:53:53.412Z,998.16
2022-12-26T03:54:53.403Z,998.14
2022-12-26T03:55:53.392Z,998.23
2022-12-26T03:56:53.374Z,998.23
2022-12-26T03:57:53.376Z,998.16
2022-12-26T03:58:53.364Z,998.08
2022-12-26T03:59:53.370Z,998.1
2022-12-26T04:00:53.339Z,998.18
2022-12-26T04:01:53.352Z,998.14
2022-12-26T04:02:53.366Z,998.12
2022-12-26T04:03:53.314Z,998.11
2022-12-26T04:04:53.292Z,998.21
2022-12-26T04:05:53.294Z,998.18
2022-12-26T04:06:53.275Z,998.19
2022-12-26T04:07:53.256Z,998.18
2022-12-26T04:08:53.324Z,998.18
2022-12-26T04:09:54.252Z,998.09
2022-12-26T04:10:53.236Z,998.13
2022-12-26T04:11:53.224Z,998.11
2022-12-26T04:12:53.224Z,998.06
2022-12-26T04:13:53.346Z,998.05
2022-12-26T04:14:53.202Z,998.02
2022-12-26T04:15:53.173Z,997.96
2022-12-26T04:16:53.185Z,998.07
2022-12-26T04:17:53.151Z,998.1
2022-12-26T04:18:53.144Z,998.09
2022-12-26T04:19:53.169Z,998.03
2022-12-26T04:20:53.124Z,998.13
2022-12-26T04:21:53.119Z,998.16
2022-12-26T04:22:53.126Z,998.2
2022-12-26T04:23:53.251Z,998.21
2022-12-26T04:24:53.096Z,998.24
2022-12-26T04:25:53.074Z,998.26
2022-12-26T04:26:53.119Z,998.23
2022-12-26T04:27:53.074Z,998.27
2022-12-26T04:28:53.050Z,998.24
2022-12-26T04:29:53.098Z,998.22
2022-12-26T04:30:53.018Z,998.23
2022-12-26T04:31:53.007Z,998.21
2022-12-26T04:32:53.005Z,998.22
2022-12-26T04:33:52.987Z,998.24
2022-12-26T04:34:53.009Z,998.19
2022-12-26T04:35:52.966Z,998.24
2022-12-26T04:36:52.961Z,998.26
2022-12-26T04:37:52.947Z,998.3
2022-12-26T04:38:52.932Z,998.24
2022-12-26T04:39:52.942Z,998.26
2022-12-26T04:40:52.919Z,998.28
2022-12-26T04:41:52.903Z,998.21
2022-12-26T04:42:52.888Z,998.19
2022-12-26T04:43:52.885Z,998.19
2022-12-26T04:44:52.873Z,998.16
2022-12-26T04:45:52.858Z,998.13
2022-12-26T04:46:52.862Z,998.14
2022-12-26T04:47:52.842Z,998.15
2022-12-26T04:48:52.833Z,998.12
2022-12-26T04:49:52.815Z,998.21
2022-12-26T04:50:52.806Z,998.15
2022-12-26T04:51:52.804Z,998.22
2022-12-26T04:52:52.787Z,998.17
2022-12-26T04:53:52.833Z,998.16
2022-12-26T04:54:52.921Z,998.2
2022-12-26T04:55:52.756Z,998.2
2022-12-26T04:56:52.756Z,998.23
2022-12-26T04:57:52.746Z,998.23
2022-12-26T04:58:52.745Z,998.21
2022-12-26T04:59:52.719Z,998.22
2022-12-26T05:00:52.703Z,998.25
2022-12-26T05:01:52.694Z,998.28
2022-12-26T05:02:52.703Z,998.34
2022-12-26T05:03:52.777Z,998.3
2022-12-26T05:04:52.668Z,998.32
2022-12-26T05:05:52.673Z,998.31
2022-12-26T05:06:52.637Z,998.32
2022-12-26T05:07:52.622Z,998.35
2022-12-26T05:08:52.634Z,998.37
2022-12-26T05:09:52.606Z,998.43
2022-12-26T05:10:52.604Z,998.49
2022-12-26T05:11:52.603Z,998.46
2022-12-26T05:12:52.570Z,998.43
2022-12-26T05:13:52.564Z,998.43
2022-12-26T05:14:52.586Z,998.47
2022-12-26T05:15:52.574Z,998.47
2022-12-26T05:16:52.865Z,998.58
2022-12-26T05:17:52.546Z,998.54
2022-12-26T05:18:52.582Z,998.54
2022-12-26T05:19:52.522Z,998.57
2022-12-26T05:20:52.567Z,998.57
2022-12-26T05:21:52.564Z,998.51
2022-12-26T05:22:52.497Z,998.57
2022-12-26T05:23:52.453Z,998.57
2022-12-26T05:24:52.518Z,998.64
2022-12-26T05:25:52.435Z,998.68
2022-12-26T05:26:52.427Z,998.67
2022-12-26T05:27:52.415Z,998.66
2022-12-26T05:28:52.399Z,998.62
2022-12-26T05:29:52.391Z,998.57
2022-12-26T05:30:52.383Z,998.63
2022-12-26T05:31:52.368Z,998.62
2022-12-26T05:32:52.359Z,998.69
2022-12-26T05:33:52.345Z,998.71
2022-12-26T05:34:52.331Z,998.74
2022-12-26T05:35:52.327Z,998.78
2022-12-26T05:36:52.374Z,998.76
2022-12-26T05:37:52.304Z,998.82
2022-12-26T05:38:52.290Z,998.75
2022-12-26T05:39:52.282Z,998.73
2022-12-26T05:40:52.299Z,998.8
2022-12-26T05:41:52.266Z,998.8
2022-12-26T05:42:52.287Z,998.79
2022-12-26T05:43:52.251Z,998.77
2022-12-26T05:44:52.224Z,998.72
2022-12-26T05:45:52.220Z,998.67
2022-12-26T05:46:52.208Z,998.75
2022-12-26T05:47:52.197Z,998.74
2022-12-26T05:48:52.190Z,998.75
2022-12-26T05:49:52.183Z,998.76
2022-12-26T05:50:52.165Z,998.77
2022-12-26T05:51:52.155Z,998.73
2022-12-26T05:52:52.142Z,998.79
2022-12-26T05:53:52.158Z,998.82
2022-12-26T05:54:52.126Z,998.78
2022-12-26T05:55:52.147Z,998.74
2022-12-26T05:56:52.107Z,998.74
2022-12-26T05:57:52.086Z,998.84
2022-12-26T05:58:52.078Z,998.82
2022-12-26T05:59:52.084Z,998.78
2022-12-26T06:00:52.058Z,998.67
2022-12-26T06:01:52.060Z,998.74
2022-12-26T06:02:52.062Z,998.77
2022-12-26T06:03:52.082Z,998.78
2022-12-26T06:04:52.053Z,998.76
2022-12-26T06:05:53.010Z,998.76
2022-12-26T06:06:51.994Z,998.83
2022-12-26T06:07:52.007Z,998.9
2022-12-26T06:08:51.983Z,998.87
2022-12-26T06:09:52.000Z,998.91
2022-12-26T06:10:52.064Z,998.91
2022-12-26T06:11:51.946Z,998.88
2022-12-26T06:12:51.937Z,998.93
2022-12-26T06:13:51.953Z,998.97
2022-12-26T06:14:52.009Z,998.96
2022-12-26T06:15:52.895Z,998.98
2022-12-26T06:16:51.884Z,998.93
2022-12-26T06:17:52.058Z,998.97
2022-12-26T06:18:51.871Z,998.96
2022-12-26T06:19:51.902Z,999.05
2022-12-26T06:20:52.861Z,999.03
2022-12-26T06:21:52.012Z,999.07
2022-12-26T06:22:51.838Z,999.1
2022-12-26T06:23:51.819Z,999.15
2022-12-26T06:24:51.826Z,999.02
2022-12-26T06:25:51.838Z,999.01
2022-12-26T06:26:51.826Z,998.96
2022-12-26T06:27:51.847Z,998.96
2022-12-26T06:28:51.840Z,998.98
2022-12-26T06:29:51.830Z,998.94
2022-12-26T06:30:51.919Z,998.95
2022-12-26T06:31:51.763Z,998.97
2022-12-26T06:32:51.744Z,999.01
2022-12-26T06:33:51.732Z,998.98
2022-12-26T06:34:51.698Z,998.98
2022-12-26T06:35:51.770Z,999.11
2022-12-26T06:36:51.700Z,999
2022-12-26T06:37:51.698Z,998.99
2022-12-26T06:38:51.667Z,999.03
2022-12-26T06:39:51.811Z,999.02
2022-12-26T06:40:52.656Z,998.94
2022-12-26T06:41:51.649Z,998.93
2022-12-26T06:42:52.628Z,998.83
2022-12-26T06:43:52.614Z,998.88
2022-12-26T06:44:51.688Z,998.89
2022-12-26T06:45:52.704Z,998.84
2022-12-26T06:46:51.585Z,998.86
2022-12-26T06:47:51.663Z,998.89
2022-12-26T06:48:52.773Z,998.89
2022-12-26T06:49:52.676Z,998.88
2022-12-26T06:50:52.570Z,998.88
2022-12-26T06:51:52.506Z,998.94
2022-12-26T06:52:51.553Z,998.91
2022-12-26T06:53:52.586Z,998.93
2022-12-26T06:54:51.638Z,998.89
2022-12-26T06:55:52.623Z,998.92
2022-12-26T06:56:52.666Z,998.87
2022-12-26T06:57:52.457Z,998.89
2022-12-26T06:58:51.493Z,998.89
2022-12-26T06:59:51.528Z,998.91
2022-12-26T07:00:51.559Z,998.9
2022-12-26T07:01:51.440Z,998.92
2022-12-26T07:02:51.466Z,998.86
2022-12-26T07:03:51.729Z,998.88
2022-12-26T07:04:51.378Z,998.9
2022-12-26T07:05:52.447Z,998.82
2022-12-26T07:06:51.398Z,998.84
2022-12-26T07:07:51.559Z,998.88
2022-12-26T07:08:52.772Z,998.94
2022-12-26T07:09:51.386Z,998.91
2022-12-26T07:10:51.342Z,998.91
2022-12-26T07:11:51.316Z,998.84
2022-12-26T07:12:51.331Z,998.81
2022-12-26T07:13:51.423Z,998.92
2022-12-26T07:14:52.429Z,998.94
2022-12-26T07:15:51.386Z,998.99
2022-12-26T07:16:52.369Z,999.07
2022-12-26T07:17:51.274Z,999.04
2022-12-26T07:18:51.346Z,998.98
2022-12-26T07:19:52.206Z,998.91
2022-12-26T07:20:51.366Z,998.94
2022-12-26T07:21:51.296Z,999.03
2022-12-26T07:22:51.257Z,999.06
2022-12-26T07:23:51.251Z,999.04
2022-12-26T07:24:51.244Z,999.1
2022-12-26T07:25:51.198Z,999.16
2022-12-26T07:26:51.173Z,999.05
2022-12-26T07:27:51.162Z,999.04
2022-12-26T07:28:51.136Z,999.15
2022-12-26T07:29:51.215Z,999.18
2022-12-26T07:30:51.174Z,999.2
2022-12-26T07:31:51.084Z,999.32
2022-12-26T07:32:51.162Z,999.32
2022-12-26T07:33:51.177Z,999.43
2022-12-26T07:34:51.177Z,999.41
2022-12-26T07:35:51.285Z,999.45
2022-12-26T07:36:51.037Z,999.44
2022-12-26T07:37:51.074Z,999.46
2022-12-26T07:38:51.090Z,999.52
2022-12-26T07:39:52.039Z,999.52
2022-12-26T07:40:51.006Z,999.55
2022-12-26T07:41:51.116Z,999.58
2022-12-26T07:42:51.295Z,999.53
2022-12-26T07:43:50.988Z,999.52
2022-12-26T07:44:51.159Z,999.52
2022-12-26T07:45:51.039Z,999.62
2022-12-26T07:46:51.064Z,999.57
2022-12-26T07:47:50.948Z,999.52
2022-12-26T07:48:50.984Z,999.54
2022-12-26T07:49:51.044Z,999.53
2022-12-26T07:50:51.934Z,999.53
2022-12-26T07:51:51.139Z,999.6
2022-12-26T07:52:50.945Z,999.51
2022-12-26T07:53:51.052Z,999.55
2022-12-26T07:54:51.912Z,999.5
2022-12-26T07:55:50.999Z,999.54
2022-12-26T07:56:51.837Z,999.48
2022-12-26T07:57:50.822Z,999.49
2022-12-26T07:58:50.925Z,999.51
2022-12-26T07:59:50.876Z,999.51
2022-12-26T08:00:50.846Z,999.51
2022-12-26T08:01:51.792Z,999.54
2022-12-26T08:02:50.866Z,999.62
2022-12-26T08:03:50.797Z,999.6
2022-12-26T08:04:50.751Z,999.63
2022-12-26T08:05:50.738Z,999.68
2022-12-26T08:06:50.720Z,999.61
2022-12-26T08:07:50.691Z,999.57
2022-12-26T08:08:50.686Z,999.55
2022-12-26T08:09:50.685Z,999.6
2022-12-26T08:10:50.722Z,999.57
2022-12-26T08:11:50.652Z,999.53
2022-12-26T08:12:50.656Z,999.56
2022-12-26T08:13:50.638Z,999.58
2022-12-26T08:14:50.660Z,999.53
2022-12-26T08:15:50.628Z,999.59
2022-12-26T08:16:50.624Z,999.59
2022-12-26T08:17:50.594Z,999.48
2022-12-26T08:18:50.574Z,999.51
2022-12-26T08:19:50.571Z,999.54
2022-12-26T08:20:50.550Z,999.58
2022-12-26T08:21:50.559Z,999.62
2022-12-26T08:22:50.551Z,999.63
2022-12-26T08:23:50.549Z,999.69
2022-12-26T08:24:50.568Z,999.71
2022-12-26T08:25:50.508Z,999.7
2022-12-26T08:26:50.496Z,999.73
2022-12-26T08:27:50.498Z,999.71
2022-12-26T08:28:50.769Z,999.68
2022-12-26T08:29:51.720Z,999.69
2022-12-26T08:30:51.482Z,999.7
2022-12-26T08:31:50.475Z,999.71
2022-12-26T08:32:50.440Z,999.66
2022-12-26T08:33:50.466Z,999.68
2022-12-26T08:34:50.428Z,999.71
2022-12-26T08:35:50.616Z,999.71
2022-12-26T08:36:51.408Z,999.7
2022-12-26T08:37:50.414Z,999.7
2022-12-26T08:38:50.525Z,999.72
2022-12-26T08:39:51.552Z,999.74
2022-12-26T08:40:51.652Z,999.73
2022-12-26T08:41:50.420Z,999.76
2022-12-26T08:42:51.345Z,999.75
2022-12-26T08:44:50.329Z,999.73
2022-12-26T08:45:50.292Z,999.7
2022-12-26T08:46:50.319Z,999.69
2022-12-26T08:47:50.297Z,999.67
2022-12-26T08:48:50.306Z,999.7
2022-12-26T08:49:50.256Z,999.76
2022-12-26T08:50:50.250Z,999.71
2022-12-26T08:51:50.467Z,999.73
2022-12-26T08:52:51.214Z,999.81
2022-12-26T08:53:50.222Z,999.78
2022-12-26T08:54:50.429Z,999.84
2022-12-26T08:55:50.312Z,999.92
2022-12-26T08:56:50.335Z,999.86
2022-12-26T08:57:51.268Z,999.8
2022-12-26T08:58:50.318Z,999.8
2022-12-26T08:59:50.236Z,999.82
2022-12-26T09:00:50.130Z,999.81
2022-12-26T09:01:50.129Z,999.75
2022-12-26T09:02:50.113Z,999.75
2022-12-26T09:03:50.106Z,999.77
2022-12-26T09:04:50.087Z,999.79
2022-12-26T09:05:50.106Z,999.75
2022-12-26T09:06:50.060Z,999.75
2022-12-26T09:07:50.086Z,999.81
2022-12-26T09:08:50.047Z,999.72
2022-12-26T09:09:50.057Z,999.73
2022-12-26T09:10:50.095Z,999.77
2022-12-26T09:11:50.009Z,999.77
2022-12-26T09:12:49.994Z,999.73
2022-12-26T09:13:49.995Z,999.76
2022-12-26T09:14:49.983Z,999.75
2022-12-26T09:15:49.982Z,999.79
2022-12-26T09:16:49.953Z,999.69
2022-12-26T09:17:49.946Z,999.78
2022-12-26T09:18:49.939Z,999.67
2022-12-26T09:19:49.928Z,999.63
2022-12-26T09:20:49.965Z,999.73
2022-12-26T09:21:49.906Z,999.82
2022-12-26T09:22:49.899Z,999.79
2022-12-26T09:23:49.914Z,999.84
2022-12-26T09:24:49.874Z,999.88
2022-12-26T09:25:49.861Z,999.85
2022-12-26T09:26:49.911Z,999.95
2022-12-26T09:27:49.844Z,999.98
2022-12-26T09:28:49.869Z,1000
2022-12-26T09:29:49.916Z,1000.04
2022-12-26T09:30:49.999Z,1000.05
2022-12-26T09:31:49.832Z,1000.01
2022-12-26T09:32:49.913Z,999.98
2022-12-26T09:33:49.919Z,1000.03
2022-12-26T09:34:50.801Z,1000.02
2022-12-26T09:35:50.017Z,1000.03
2022-12-26T09:36:49.752Z,1000.05
2022-12-26T09:37:50.007Z,1000.01
2022-12-26T09:38:49.782Z,1000.09
2022-12-26T09:39:50.752Z,1000.05
2022-12-26T09:40:49.711Z,999.94
2022-12-26T09:41:49.806Z,999.86
2022-12-26T09:42:49.689Z,999.86
2022-12-26T09:43:49.857Z,999.78
2022-12-26T09:44:49.702Z,999.76
2022-12-26T09:45:49.745Z,999.77
2022-12-26T09:46:49.667Z,999.74
2022-12-26T09:47:49.659Z,999.71
2022-12-26T09:48:49.615Z,999.82
2022-12-26T09:49:49.669Z,999.76
2022-12-26T09:50:49.641Z,999.85
2022-12-26T09:51:49.680Z,999.88
2022-12-26T09:52:49.799Z,999.85
2022-12-26T09:53:49.792Z,999.75
2022-12-26T09:54:50.627Z,999.86
2022-12-26T09:55:49.659Z,999.83
2022-12-26T09:56:49.566Z,999.84
2022-12-26T09:57:50.527Z,999.82
2022-12-26T09:58:49.542Z,999.81
2022-12-26T09:59:49.563Z,999.82
2022-12-26T10:00:49.545Z,999.83
2022-12-26T10:01:49.478Z,999.89
2022-12-26T10:02:49.504Z,999.8
2022-12-26T10:03:49.519Z,999.76
2022-12-26T10:04:49.473Z,999.76
2022-12-26T10:05:49.490Z,999.72
2022-12-26T10:06:49.421Z,999.82
2022-12-26T10:07:49.477Z,999.81
2022-12-26T10:08:50.409Z,999.87
2022-12-26T10:09:49.503Z,999.81
2022-12-26T10:10:49.463Z,999.84
2022-12-26T10:11:49.468Z,999.8
2022-12-26T10:12:50.412Z,999.82
2022-12-26T10:13:50.377Z,999.79
2022-12-26T10:14:49.475Z,999.8
2022-12-26T10:15:50.324Z,999.87
2022-12-26T10:16:49.373Z,999.88
2022-12-26T10:17:49.349Z,999.93
2022-12-26T10:18:49.293Z,999.93
2022-12-26T10:19:49.277Z,999.8
2022-12-26T10:20:49.266Z,999.75
2022-12-26T10:21:49.252Z,999.77
2022-12-26T10:22:49.247Z,999.86
2022-12-26T10:23:49.281Z,999.83
2022-12-26T10:24:49.223Z,999.82
2022-12-26T10:25:49.631Z,999.84
2022-12-26T10:26:49.311Z,999.78
2022-12-26T10:27:50.271Z,999.76
2022-12-26T10:28:50.329Z,999.79
2022-12-26T10:29:49.267Z,999.77
2022-12-26T10:30:49.316Z,999.79
2022-12-26T10:31:49.211Z,999.71
2022-12-26T10:32:49.194Z,999.75
2022-12-26T10:33:50.131Z,999.79
2022-12-26T10:34:49.135Z,999.78
2022-12-26T10:35:49.164Z,999.81
2022-12-26T10:36:49.106Z,999.77
2022-12-26T10:37:49.131Z,999.79
2022-12-26T10:38:49.101Z,999.82
2022-12-26T10:39:49.136Z,999.7
2022-12-26T10:40:49.186Z,999.75
2022-12-26T10:41:50.236Z,999.81
2022-12-26T10:42:49.146Z,999.75
2022-12-26T10:43:49.105Z,999.68
2022-12-26T10:44:49.024Z,999.79
2022-12-26T10:45:49.037Z,999.77
2022-12-26T10:46:49.152Z,999.76
2022-12-26T10:47:50.257Z,999.75
2022-12-26T10:48:49.099Z,999.73
2022-12-26T10:49:49.256Z,999.77
2022-12-26T10:50:49.983Z,999.72
2022-12-26T10:51:48.956Z,999.76
2022-12-26T10:52:48.950Z,999.79
2022-12-26T10:53:48.927Z,999.8
2022-12-26T10:54:48.986Z,999.85
2022-12-26T10:55:48.914Z,999.83
2022-12-26T10:56:48.883Z,999.87
2022-12-26T10:57:48.873Z,999.84
2022-12-26T10:58:48.899Z,999.83
2022-12-26T10:59:48.849Z,999.95
2022-12-26T11:00:48.956Z,999.85
2022-12-26T11:01:48.870Z,999.88
2022-12-26T11:02:48.843Z,999.84
2022-12-26T11:03:48.825Z,999.81
2022-12-26T11:04:48.910Z,999.84
2022-12-26T11:05:48.819Z,999.9
2022-12-26T11:06:48.930Z,999.9
2022-12-26T11:07:48.776Z,999.84
2022-12-26T11:08:48.762Z,999.81
2022-12-26T11:09:48.754Z,999.83
2022-12-26T11:10:48.753Z,999.9
2022-12-26T11:11:48.743Z,999.86
2022-12-26T11:12:48.726Z,999.82
2022-12-26T11:13:48.732Z,999.89
2022-12-26T11:14:48.697Z,999.98
2022-12-26T11:15:48.684Z,999.72
2022-12-26T11:16:48.693Z,999.88
2022-12-26T11:17:48.678Z,999.85
2022-12-26T11:18:48.662Z,999.82
2022-12-26T11:19:48.918Z,999.83
2022-12-26T11:20:48.647Z,999.75
2022-12-26T11:21:48.652Z,999.74
2022-12-26T11:22:48.651Z,999.84
2022-12-26T11:23:48.604Z,999.84
2022-12-26T11:24:48.592Z,999.74
2022-12-26T11:25:48.581Z,999.86
2022-12-26T11:26:48.582Z,999.78
2022-12-26T11:27:48.559Z,999.78
2022-12-26T11:28:48.546Z,999.72
2022-12-26T11:29:48.534Z,999.72
2022-12-26T11:30:48.600Z,999.73
2022-12-26T11:31:48.532Z,999.78
2022-12-26T11:32:48.550Z,999.65
2022-12-26T11:33:48.566Z,999.62
2022-12-26T11:34:48.484Z,999.66
2022-12-26T11:35:48.482Z,999.67
2022-12-26T11:36:48.514Z,999.63
2022-12-26T11:37:48.467Z,999.67
2022-12-26T11:38:48.533Z,999.57
2022-12-26T11:39:48.474Z,999.64
2022-12-26T11:40:48.422Z,999.67
2022-12-26T11:41:48.425Z,999.71
2022-12-26T11:42:48.414Z,999.67
2022-12-26T11:43:48.388Z,999.66
2022-12-26T11:44:48.385Z,999.71
2022-12-26T11:45:48.379Z,999.71
2022-12-26T11:46:48.364Z,999.6
2022-12-26T11:47:48.364Z,999.64
2022-12-26T11:48:48.399Z,999.66
2022-12-26T11:49:48.344Z,999.55
2022-12-26T11:50:48.317Z,999.68
2022-12-26T11:51:48.320Z,999.7
2022-12-26T11:52:48.291Z,999.72
2022-12-26T11:53:48.292Z,999.64
2022-12-26T11:54:48.285Z,999.6
2022-12-26T11:55:48.358Z,999.64
2022-12-26T11:56:48.410Z,999.6
2022-12-26T11:57:48.242Z,999.62
2022-12-26T11:58:48.236Z,999.66
2022-12-26T11:59:48.215Z,999.5
2022-12-26T12:00:48.227Z,999.62
2022-12-26T12:01:48.219Z,999.54
2022-12-26T12:02:48.185Z,999.57
2022-12-26T12:03:48.184Z,999.56
2022-12-26T12:04:48.192Z,999.57
2022-12-26T12:05:48.163Z,999.56
2022-12-26T12:06:48.274Z,999.52
2022-12-26T12:07:48.142Z,999.57
2022-12-26T12:08:48.158Z,999.52
2022-12-26T12:09:48.119Z,999.51
2022-12-26T12:10:48.103Z,999.79
2022-12-26T12:11:48.240Z,999.44
2022-12-26T12:12:48.086Z,999.46
2022-12-26T12:13:48.120Z,999.52
2022-12-26T12:14:48.061Z,999.42
2022-12-26T12:15:48.054Z,999.5
2022-12-26T12:16:48.044Z,999.48
2022-12-26T12:17:48.039Z,999.46
2022-12-26T12:18:48.016Z,999.46
2022-12-26T12:19:48.069Z,999.55
2022-12-26T12:20:47.996Z,999.49
2022-12-26T12:21:48.085Z,999.43
2022-12-26T12:22:48.010Z,999.45
2022-12-26T12:23:47.968Z,999.47
2022-12-26T12:24:47.996Z,999.46
2022-12-26T12:25:47.949Z,999.53
2022-12-26T12:26:47.943Z,999.46
2022-12-26T12:27:47.952Z,999.57
2022-12-26T12:28:47.932Z,999.48
2022-12-26T12:29:47.909Z,999.52
2022-12-26T12:30:47.897Z,999.5
2022-12-26T12:31:47.996Z,999.46